Time;durP1;ratioP1;P1;durP2;ratioP2;P2;SDS_P1;SDS_P2;PMS_P1;PMS_P2;Temp;Humidity;BMP_temperature;BMP_pressure;BME280_temperature;BME280_humidity;BME280_pressure;Samples;Min_cycle;Max_cycle;Signal;HPM_P1;HPM_P2
2023/03/21 00:00:03;;;;;;;76.80;22.90;;;8.70;99.90;;;;;;5074909;28;20122;-85
2023/03/21 00:02:50;;;;;;;74.85;24.52;;;8.70;99.90;;;;;;5068776;28;20049;-84
2023/03/21 00:05:40;;;;;;;72.45;25.38;;;8.80;99.90;;;;;;5070213;28;20068;-85
2023/03/21 00:08:26;;;;;;;66.65;24.15;;;8.70;99.90;;;;;;5069958;28;20052;-83
2023/03/21 00:11:12;;;;;;;75.38;24.23;;;8.70;99.90;;;;;;5069407;28;20129;-85
2023/03/21 00:14:01;;;;;;;70.13;24.05;;;8.70;99.90;;;;;;5069819;28;20397;-86
2023/03/21 00:16:50;;;;;;;75.38;25.00;;;8.70;99.90;;;;;;5055018;28;20052;-86
2023/03/21 00:19:37;;;;;;;73.13;25.23;;;8.70;99.90;;;;;;5068770;28;20060;-82
2023/03/21 00:22:24;;;;;;;69.05;22.23;;;8.70;99.90;;;;;;5069740;28;20060;-83
2023/03/21 00:25:10;;;;;;;67.60;24.77;;;8.70;99.90;;;;;;5071315;28;20131;-85
2023/03/21 00:27:56;;;;;;;67.70;22.38;;;8.70;99.90;;;;;;5070193;28;20132;-86
2023/03/21 00:30:42;;;;;;;70.95;21.92;;;8.70;99.90;;;;;;5069790;28;20057;-85
2023/03/21 00:33:28;;;;;;;54.28;18.63;;;8.70;99.90;;;;;;5052423;28;20111;-84
2023/03/21 00:36:15;;;;;;;58.38;20.80;;;8.70;99.90;;;;;;5071614;28;20044;-85
2023/03/21 00:39:01;;;;;;;51.00;20.38;;;8.70;99.90;;;;;;5074452;28;20048;-85
2023/03/21 00:41:48;;;;;;;55.55;19.73;;;8.70;99.90;;;;;;5072594;28;20053;-83
2023/03/21 00:44:35;;;;;;;57.95;20.27;;;8.70;99.90;;;;;;5073852;28;20131;-85
2023/03/21 00:47:21;;;;;;;55.42;19.27;;;8.70;99.90;;;;;;5074365;28;20516;-83
2023/03/21 00:50:08;;;;;;;53.72;17.42;;;8.70;99.90;;;;;;5072827;28;20443;-83
2023/03/21 00:52:54;;;;;;;56.10;19.33;;;8.70;99.90;;;;;;5073074;28;20059;-83
2023/03/21 00:55:40;;;;;;;55.60;19.23;;;8.70;99.90;;;;;;5081130;28;20587;-82
2023/03/21 00:58:26;;;;;;;64.50;19.63;;;8.70;99.90;;;;;;5073595;28;20048;-83
2023/03/21 01:01:13;;;;;;;58.10;18.85;;;8.70;99.90;;;;;;5073872;28;20094;-85
2023/03/21 01:04:06;;;;;;;65.88;20.63;;;8.70;99.90;;;;;;5073291;28;20083;-85
2023/03/21 01:06:53;;;;;;;70.25;21.00;;;8.70;99.90;;;;;;5041210;28;20063;-86
2023/03/21 01:09:39;;;;;;;62.22;21.83;;;8.70;99.90;;;;;;5072396;28;20056;-85
2023/03/21 01:12:26;;;;;;;93.88;23.90;;;8.70;99.90;;;;;;5071761;28;20055;-86
2023/03/21 01:15:12;;;;;;;96.40;25.85;;;8.70;99.90;;;;;;5045374;28;20084;-84
2023/03/21 01:17:58;;;;;;;100.05;28.35;;;8.80;99.90;;;;;;5077258;28;20062;-86
2023/03/21 01:20:44;;;;;;;106.53;29.42;;;8.70;99.90;;;;;;5054468;28;20059;-87
2023/03/21 01:23:30;;;;;;;115.55;30.25;;;8.80;99.90;;;;;;5070769;28;20119;-86
2023/03/21 01:26:17;;;;;;;96.70;29.40;;;8.70;99.90;;;;;;5071679;28;20091;-84
2023/03/21 01:29:04;;;;;;;112.00;30.15;;;8.80;99.90;;;;;;5070815;28;20060;-83
2023/03/21 01:31:50;;;;;;;144.57;35.97;;;8.80;99.90;;;;;;5072005;28;20087;-84
2023/03/21 01:34:36;;;;;;;129.65;32.60;;;8.80;99.90;;;;;;5071812;28;20052;-83
2023/03/21 01:37:25;;;;;;;124.88;33.20;;;8.80;99.90;;;;;;5071171;28;20127;-83
2023/03/21 01:40:25;;;;;;;116.43;33.30;;;8.80;99.90;;;;;;5071514;28;20098;-84
2023/03/21 01:43:39;;;;;;;113.75;32.05;;;8.80;99.90;;;;;;5072379;28;20090;-86
2023/03/21 01:46:39;;;;;;;100.82;30.30;;;8.80;99.90;;;;;;5069900;28;20059;-83
2023/03/21 01:49:33;;;;;;;95.78;29.85;;;8.80;99.90;;;;;;5054012;28;20455;-83
2023/03/21 01:52:33;;;;;;;94.03;28.70;;;8.80;99.90;;;;;;5057727;28;20078;-86
2023/03/21 01:55:19;;;;;;;76.65;25.45;;;8.80;99.90;;;;;;5070566;28;20547;-87
2023/03/21 01:58:06;;;;;;;88.07;25.73;;;8.80;99.90;;;;;;5073970;28;20382;-86
2023/03/21 02:00:55;;;;;;;79.28;24.25;;;8.80;99.90;;;;;;5071261;28;20052;-85
2023/03/21 02:03:51;;;;;;;77.82;24.88;;;8.70;99.90;;;;;;5070793;28;20048;-84
2023/03/21 02:06:39;;;;;;;100.43;27.73;;;8.80;99.90;;;;;;5055691;28;20040;-86
2023/03/21 02:09:31;;;;;;;105.25;31.77;;;8.80;99.90;;;;;;5070326;28;20058;-85
2023/03/21 02:12:18;;;;;;;122.18;35.08;;;8.80;99.90;;;;;;5071002;28;20052;-85
2023/03/21 02:15:06;;;;;;;131.75;36.25;;;8.80;99.90;;;;;;5063017;28;20048;-85
2023/03/21 02:18:09;;;;;;;138.60;37.35;;;8.80;99.90;;;;;;5070515;28;20075;-84
2023/03/21 02:21:21;;;;;;;124.75;36.78;;;8.80;99.90;;;;;;5071117;28;20091;-83
2023/03/21 02:24:32;;;;;;;115.68;36.03;;;8.80;99.90;;;;;;5053433;28;20051;-83
2023/03/21 02:27:20;;;;;;;135.98;37.92;;;8.80;99.90;;;;;;5053121;28;20059;-83
2023/03/21 02:30:24;;;;;;;168.95;42.50;;;8.80;99.90;;;;;;5053528;28;20055;-81
2023/03/21 02:33:30;;;;;;;150.68;40.67;;;8.80;99.90;;;;;;5055431;28;20041;-85
2023/03/21 02:36:26;;;;;;;172.90;41.60;;;8.80;99.90;;;;;;5074042;28;20048;-84
2023/03/21 02:39:16;;;;;;;185.05;43.80;;;8.80;99.90;;;;;;5073888;28;20049;-82
2023/03/21 02:42:06;;;;;;;167.18;42.88;;;8.80;99.90;;;;;;5070722;28;20044;-81
2023/03/21 02:45:19;;;;;;;164.07;44.03;;;8.80;99.90;;;;;;5071008;28;20052;-81
2023/03/21 02:48:11;;;;;;;159.70;41.90;;;8.80;99.90;;;;;;5063961;28;20141;-81
2023/03/21 02:51:01;;;;;;;166.48;42.75;;;8.80;99.90;;;;;;5072363;28;20079;-82
2023/03/21 02:53:54;;;;;;;138.45;40.75;;;8.80;99.90;;;;;;5072285;28;20091;-82
2023/03/21 02:56:41;;;;;;;130.23;37.47;;;8.80;99.90;;;;;;5070758;28;20095;-82
2023/03/21 02:59:29;;;;;;;123.10;36.63;;;8.80;99.90;;;;;;5068864;28;20087;-82
2023/03/21 03:02:19;;;;;;;116.68;36.55;;;8.80;99.90;;;;;;5068944;28;20515;-81
2023/03/21 03:05:27;;;;;;;106.00;34.35;;;8.80;99.90;;;;;;5069366;28;20045;-84
2023/03/21 03:08:51;;;;;;;84.28;29.02;;;8.80;99.90;;;;;;5072229;28;20064;-85
2023/03/21 03:11:40;;;;;;;86.38;29.10;;;8.80;99.90;;;;;;5071832;28;20044;-82
2023/03/21 03:14:50;;;;;;;76.93;28.00;;;8.80;99.90;;;;;;5054263;28;20090;-83
2023/03/21 03:17:47;;;;;;;87.03;26.83;;;8.80;99.90;;;;;;5070206;28;20051;-82
2023/03/21 03:20:51;;;;;;;70.07;24.65;;;8.80;99.90;;;;;;5069561;28;20058;-82
2023/03/21 03:23:56;;;;;;;78.22;26.77;;;8.80;99.90;;;;;;5068536;28;20040;-82
2023/03/21 03:27:16;;;;;;;74.97;26.00;;;8.80;99.90;;;;;;5069108;28;20409;-83
2023/03/21 03:30:04;;;;;;;76.07;26.27;;;8.80;99.90;;;;;;5067593;28;20127;-83
2023/03/21 03:32:58;;;;;;;92.07;29.27;;;8.80;99.90;;;;;;5068413;28;20048;-83
2023/03/21 03:35:45;;;;;;;87.15;27.63;;;8.80;99.90;;;;;;5069692;28;20383;-84
2023/03/21 03:38:32;;;;;;;103.22;30.20;;;8.80;99.90;;;;;;5072512;28;20051;-84
2023/03/21 03:41:24;;;;;;;89.18;29.00;;;8.80;99.90;;;;;;5070190;28;20058;-84
2023/03/21 03:44:11;;;;;;;87.85;28.25;;;8.80;99.90;;;;;;5069358;28;20082;-85
2023/03/21 03:47:00;;;;;;;100.57;29.15;;;8.80;99.90;;;;;;5069771;28;20045;-86
2023/03/21 03:49:55;;;;;;;82.18;26.88;;;8.80;99.90;;;;;;5069888;28;20056;-86
2023/03/21 03:53:10;;;;;;;89.10;27.55;;;8.80;99.90;;;;;;5076916;28;20044;-82
2023/03/21 03:55:59;;;;;;;83.80;24.58;;;8.80;99.90;;;;;;5069199;28;20044;-85
2023/03/21 03:58:45;;;;;;;71.97;23.27;;;8.80;99.90;;;;;;5068859;28;20052;-84
2023/03/21 04:01:33;;;;;;;77.60;24.52;;;8.80;99.90;;;;;;5051508;28;20089;-83
2023/03/21 04:04:21;;;;;;;64.60;21.10;;;8.80;99.90;;;;;;5069692;28;20055;-85
2023/03/21 04:07:07;;;;;;;75.35;21.25;;;8.80;99.90;;;;;;5069515;28;20049;-85
2023/03/21 04:09:54;;;;;;;63.50;22.00;;;8.70;99.90;;;;;;5069084;28;20059;-82
2023/03/21 04:12:40;;;;;;;65.55;20.73;;;8.80;99.90;;;;;;5069870;28;20071;-85
2023/03/21 04:15:26;;;;;;;63.92;20.27;;;8.80;99.90;;;;;;5072223;28;20088;-83
2023/03/21 04:18:12;;;;;;;55.83;19.98;;;8.80;99.90;;;;;;5073101;28;20087;-82
2023/03/21 04:20:58;;;;;;;56.25;20.80;;;8.80;99.90;;;;;;5071841;28;20459;-83
2023/03/21 04:23:44;;;;;;;62.08;20.52;;;8.80;99.90;;;;;;5073975;28;20053;-83
2023/03/21 04:26:32;;;;;;;67.20;20.08;;;8.80;99.90;;;;;;5072309;28;20052;-86
2023/03/21 04:29:19;;;;;;;76.97;21.88;;;8.80;99.90;;;;;;5057880;28;20084;-86
2023/03/21 04:32:14;;;;;;;65.50;21.27;;;8.80;99.90;;;;;;5046057;28;20135;-83
2023/03/21 04:35:01;;;;;;;68.90;22.42;;;8.80;99.90;;;;;;5071072;28;20052;-83
2023/03/21 04:37:47;;;;;;;76.93;21.73;;;8.80;99.90;;;;;;5071883;28;20049;-83
2023/03/21 04:40:33;;;;;;;65.25;20.98;;;8.80;99.90;;;;;;5072555;28;20055;-83
2023/03/21 04:43:19;;;;;;;72.88;21.98;;;8.80;99.90;;;;;;5057958;28;20132;-83
2023/03/21 04:46:06;;;;;;;68.03;21.48;;;8.80;99.90;;;;;;5071814;28;20049;-86
2023/03/21 04:48:52;;;;;;;70.10;21.10;;;8.80;99.90;;;;;;5072281;28;20587;-82
2023/03/21 04:51:38;;;;;;;80.57;23.58;;;8.80;99.90;;;;;;5072263;28;20536;-82
2023/03/21 04:54:24;;;;;;;70.55;21.08;;;8.80;99.90;;;;;;5054409;28;20081;-87
2023/03/21 04:57:10;;;;;;;93.78;23.92;;;8.80;99.90;;;;;;5044303;28;20048;-85
2023/03/21 04:59:56;;;;;;;98.80;25.05;;;8.80;99.90;;;;;;5071476;28;20049;-82
2023/03/21 05:02:43;;;;;;;86.85;23.52;;;8.80;99.90;;;;;;5072221;28;20056;-85
2023/03/21 05:05:30;;;;;;;73.47;22.00;;;8.80;99.90;;;;;;5073614;28;20058;-83
2023/03/21 05:08:16;;;;;;;72.85;22.10;;;8.80;99.90;;;;;;5072060;28;20109;-83
2023/03/21 05:11:03;;;;;;;77.30;22.80;;;8.80;99.90;;;;;;5071540;28;20493;-82
2023/03/21 05:13:49;;;;;;;75.45;21.05;;;8.80;99.90;;;;;;5071731;28;20052;-84
2023/03/21 05:16:37;;;;;;;66.93;20.10;;;8.80;99.90;;;;;;5040017;28;20084;-86
2023/03/21 05:19:34;;;;;;;87.25;21.88;;;8.80;99.90;;;;;;5058027;28;20057;-82
2023/03/21 05:22:23;;;;;;;87.93;23.60;;;8.80;99.90;;;;;;5072007;28;20449;-86
2023/03/21 05:25:10;;;;;;;101.93;23.45;;;8.80;99.90;;;;;;5072017;28;20044;-83
2023/03/21 05:27:56;;;;;;;84.50;21.58;;;8.80;99.90;;;;;;5071728;28;20531;-82
2023/03/21 05:30:44;;;;;;;92.88;23.40;;;8.80;99.90;;;;;;5070802;28;20488;-83
2023/03/21 05:33:31;;;;;;;76.15;20.30;;;8.80;99.90;;;;;;5072662;28;20049;-82
2023/03/21 05:36:17;;;;;;;78.05;20.80;;;8.80;99.90;;;;;;5071597;28;20056;-84
2023/03/21 05:39:04;;;;;;;72.95;20.80;;;8.80;99.90;;;;;;5071063;28;20086;-82
2023/03/21 05:41:50;;;;;;;53.30;17.15;;;8.80;99.90;;;;;;5071231;28;20485;-85
2023/03/21 05:44:39;;;;;;;64.35;18.52;;;8.80;99.90;;;;;;5071119;28;20052;-84
2023/03/21 05:47:25;;;;;;;58.42;17.67;;;8.80;99.90;;;;;;5072167;28;20216;-84
2023/03/21 05:50:12;;;;;;;59.28;18.02;;;8.90;99.90;;;;;;5057878;28;20097;-82
2023/03/21 05:52:58;;;;;;;45.80;15.98;;;8.80;99.90;;;;;;5071631;28;20040;-83
2023/03/21 05:55:44;;;;;;;42.78;15.30;;;8.90;99.90;;;;;;5071203;28;20057;-84
2023/03/21 05:58:30;;;;;;;38.13;12.75;;;8.80;99.90;;;;;;5070822;28;20048;-83
2023/03/21 06:01:16;;;;;;;36.13;11.98;;;8.80;99.90;;;;;;5070819;28;20051;-84
2023/03/21 06:04:02;;;;;;;37.03;11.70;;;8.90;99.90;;;;;;5071807;28;20044;-85
2023/03/21 06:06:50;;;;;;;40.63;12.43;;;8.90;99.90;;;;;;5052942;28;20505;-86
2023/03/21 06:09:36;;;;;;;38.72;11.93;;;8.90;99.90;;;;;;5071516;28;20451;-83
2023/03/21 06:12:22;;;;;;;28.42;11.48;;;8.90;99.90;;;;;;5071610;28;20056;-86
2023/03/21 06:15:09;;;;;;;30.13;11.95;;;8.90;99.90;;;;;;5052423;28;20129;-84
2023/03/21 06:17:58;;;;;;;41.63;14.10;;;8.90;99.90;;;;;;5071429;28;20049;-82
2023/03/21 06:20:44;;;;;;;30.17;12.10;;;8.90;99.90;;;;;;5069720;28;20067;-83
2023/03/21 06:23:30;;;;;;;31.48;12.38;;;8.90;99.90;;;;;;5052296;28;20053;-83
2023/03/21 06:26:21;;;;;;;36.50;12.50;;;8.90;99.90;;;;;;5052339;28;20052;-84
2023/03/21 06:29:07;;;;;;;32.92;12.40;;;9.00;99.90;;;;;;5070439;28;20084;-83
2023/03/21 06:31:53;;;;;;;27.13;10.63;;;9.00;99.90;;;;;;5070170;28;20056;-83
2023/03/21 06:34:41;;;;;;;32.50;13.10;;;9.00;99.90;;;;;;5068886;28;20056;-85
2023/03/21 06:37:27;;;;;;;34.17;12.65;;;9.00;99.90;;;;;;5070484;28;20044;-81
2023/03/21 06:40:14;;;;;;;34.00;13.48;;;9.00;99.90;;;;;;5068907;28;20545;-81
2023/03/21 06:43:00;;;;;;;34.90;13.90;;;9.00;99.90;;;;;;5070835;28;20079;-85
2023/03/21 06:45:46;;;;;;;35.35;14.65;;;9.00;99.90;;;;;;5069899;28;20052;-83
2023/03/21 06:48:32;;;;;;;35.78;13.88;;;9.00;99.90;;;;;;5077656;28;20080;-83
2023/03/21 06:51:18;;;;;;;40.92;15.32;;;9.00;99.90;;;;;;5053153;28;20053;-83
2023/03/21 06:54:04;;;;;;;39.28;14.98;;;9.00;99.90;;;;;;5055590;28;20045;-85
2023/03/21 06:56:50;;;;;;;35.85;14.25;;;9.00;99.90;;;;;;5069870;28;20186;-84
2023/03/21 06:59:36;;;;;;;37.85;13.77;;;9.00;99.90;;;;;;5052490;28;20048;-85
2023/03/21 07:02:22;;;;;;;29.48;12.05;;;9.10;99.90;;;;;;5069388;28;20053;-84
2023/03/21 07:05:08;;;;;;;40.50;14.43;;;9.00;99.90;;;;;;5069011;28;20044;-85
2023/03/21 07:07:54;;;;;;;32.55;12.00;;;9.10;99.90;;;;;;5053137;28;20060;-83
2023/03/21 07:10:42;;;;;;;33.35;12.20;;;9.10;99.90;;;;;;5068960;28;20045;-84
2023/03/21 07:13:28;;;;;;;26.88;11.30;;;9.10;99.90;;;;;;5069037;28;20413;-84
2023/03/21 07:16:15;;;;;;;27.42;11.65;;;9.10;99.90;;;;;;5051670;28;20062;-84
2023/03/21 07:19:01;;;;;;;29.40;11.48;;;9.10;99.90;;;;;;5054533;28;20606;-84
2023/03/21 07:21:47;;;;;;;27.67;11.18;;;9.20;99.90;;;;;;5068252;28;20048;-86
2023/03/21 07:24:34;;;;;;;24.40;10.80;;;9.20;99.90;;;;;;5069006;28;20056;-87
2023/03/21 07:27:20;;;;;;;23.65;10.45;;;9.20;99.90;;;;;;5069043;28;20070;-83
2023/03/21 07:30:07;;;;;;;26.70;11.75;;;9.20;99.90;;;;;;5060650;28;20535;-83
2023/03/21 07:32:53;;;;;;;25.23;10.73;;;9.20;99.90;;;;;;5069394;28;20045;-84
2023/03/21 07:35:39;;;;;;;25.38;11.05;;;9.20;99.90;;;;;;5070602;28;20696;-83
2023/03/21 07:38:26;;;;;;;27.23;12.02;;;9.20;99.90;;;;;;5051813;28;20044;-80
2023/03/21 07:41:12;;;;;;;25.70;11.45;;;9.20;99.90;;;;;;5069993;28;20055;-84
2023/03/21 07:43:59;;;;;;;27.83;11.98;;;9.20;99.90;;;;;;5069323;28;20496;-84
2023/03/21 07:46:45;;;;;;;21.25;10.73;;;9.20;99.90;;;;;;5070629;28;20060;-83
2023/03/21 07:49:31;;;;;;;22.08;9.82;;;9.20;99.90;;;;;;5072564;28;20048;-83
2023/03/21 07:52:17;;;;;;;23.33;10.32;;;9.30;99.90;;;;;;5073027;28;20048;-86
2023/03/21 07:55:04;;;;;;;23.92;10.68;;;9.30;99.90;;;;;;5058360;28;20067;-86
2023/03/21 07:57:50;;;;;;;25.88;10.75;;;9.30;99.90;;;;;;5074111;28;20049;-85
2023/03/21 08:00:37;;;;;;;20.52;9.48;;;9.30;99.90;;;;;;5072262;28;20139;-85
2023/03/21 08:03:25;;;;;;;23.02;10.45;;;9.30;99.90;;;;;;5072720;28;20151;-86
2023/03/21 08:06:11;;;;;;;23.48;10.50;;;9.30;99.90;;;;;;5072844;28;20150;-85
2023/03/21 08:09:02;;;;;;;20.58;10.13;;;9.30;99.90;;;;;;5056266;28;20135;-84
2023/03/21 08:11:48;;;;;;;19.90;10.20;;;9.30;99.90;;;;;;5073689;28;20139;-84
2023/03/21 08:14:35;;;;;;;23.23;11.52;;;9.40;99.90;;;;;;5072608;28;20051;-82
2023/03/21 08:17:21;;;;;;;25.30;11.23;;;9.40;99.90;;;;;;5073387;28;20051;-83
2023/03/21 08:20:10;;;;;;;21.95;10.73;;;9.40;99.90;;;;;;5071346;28;20500;-83
2023/03/21 08:22:56;;;;;;;21.65;10.73;;;9.40;99.90;;;;;;5057693;28;20090;-83
2023/03/21 08:25:43;;;;;;;23.35;11.38;;;9.40;99.90;;;;;;5072050;28;20511;-84
2023/03/21 08:28:29;;;;;;;18.55;10.15;;;9.40;99.90;;;;;;5057424;28;20102;-83
2023/03/21 08:31:16;;;;;;;20.35;10.63;;;9.50;99.90;;;;;;5071935;28;20504;-82
2023/03/21 08:34:02;;;;;;;17.15;9.40;;;9.50;99.90;;;;;;5072529;28;20041;-85
2023/03/21 08:36:49;;;;;;;21.02;10.27;;;9.50;99.90;;;;;;5072511;28;20059;-84
2023/03/21 08:39:35;;;;;;;18.88;10.27;;;9.50;99.90;;;;;;5056671;28;20056;-85
2023/03/21 08:42:21;;;;;;;17.15;9.30;;;9.50;99.90;;;;;;5071601;28;20044;-82
2023/03/21 08:45:09;;;;;;;16.60;9.48;;;9.50;99.90;;;;;;5071339;28;20059;-84
2023/03/21 08:47:55;;;;;;;16.42;8.75;;;9.50;99.90;;;;;;5071377;28;20496;-85
2023/03/21 08:50:44;;;;;;;14.50;8.20;;;9.50;99.90;;;;;;5072684;28;20459;-86
2023/03/21 08:53:32;;;;;;;11.73;7.18;;;9.50;99.90;;;;;;5073106;28;20048;-83
2023/03/21 08:56:18;;;;;;;12.48;7.30;;;9.50;99.90;;;;;;5071382;28;20052;-85
2023/03/21 08:59:04;;;;;;;13.43;7.70;;;9.50;99.90;;;;;;5070697;28;20053;-87
2023/03/21 09:01:50;;;;;;;17.92;9.50;;;9.60;99.90;;;;;;5071217;28;20566;-85
2023/03/21 09:04:36;;;;;;;17.33;8.80;;;9.60;99.90;;;;;;5071682;28;20048;-83
2023/03/21 09:07:25;;;;;;;16.23;9.45;;;9.60;99.90;;;;;;5071407;28;20055;-84
2023/03/21 09:10:17;;;;;;;20.15;9.95;;;9.60;99.90;;;;;;5073631;28;20404;-86
2023/03/21 09:13:03;;;;;;;17.40;10.30;;;9.60;99.90;;;;;;5073771;28;20048;-87
2023/03/21 09:15:49;;;;;;;18.95;9.98;;;9.60;99.90;;;;;;5075232;28;20678;-88
2023/03/21 09:18:46;;;;;;;20.40;11.02;;;9.70;99.90;;;;;;5073629;28;20109;-87
2023/03/21 09:21:32;;;;;;;21.88;11.35;;;9.60;99.90;;;;;;5073286;28;20045;-84
2023/03/21 09:24:19;;;;;;;20.48;12.32;;;9.70;99.90;;;;;;5073536;28;20059;-86
2023/03/21 09:27:05;;;;;;;21.48;12.35;;;9.70;99.90;;;;;;5073021;28;20052;-87
2023/03/21 09:29:52;;;;;;;24.73;14.18;;;9.70;99.90;;;;;;5056392;28;20400;-84
2023/03/21 09:32:39;;;;;;;24.27;13.40;;;9.70;99.90;;;;;;5072227;28;20049;-86
2023/03/21 09:35:26;;;;;;;27.27;14.52;;;9.70;99.90;;;;;;5070714;28;20044;-84
2023/03/21 09:38:12;;;;;;;26.10;15.32;;;9.70;99.90;;;;;;5072518;28;20067;-86
2023/03/21 09:41:08;;;;;;;24.05;13.80;;;9.70;99.90;;;;;;5071983;28;20055;-83
2023/03/21 09:44:23;;;;;;;26.00;15.55;;;9.70;99.90;;;;;;5071395;28;20052;-85
2023/03/21 09:47:21;;;;;;;23.60;15.07;;;9.70;99.90;;;;;;5071495;28;20480;-83
2023/03/21 09:50:19;;;;;;;28.67;15.55;;;9.80;99.90;;;;;;5071343;28;20064;-83
2023/03/21 09:53:17;;;;;;;27.02;15.45;;;9.80;99.90;;;;;;5071038;28;20044;-82
2023/03/21 09:56:05;;;;;;;30.50;16.50;;;9.80;99.90;;;;;;5054426;28;20064;-84
2023/03/21 09:58:57;;;;;;;28.08;16.00;;;9.80;99.90;;;;;;5070421;28;20063;-85
2023/03/21 10:01:46;;;;;;;29.30;17.02;;;9.80;99.90;;;;;;5070842;28;20072;-84
2023/03/21 10:04:32;;;;;;;28.10;17.65;;;9.80;99.90;;;;;;5070668;28;20048;-83
2023/03/21 10:07:19;;;;;;;32.95;15.68;;;9.70;99.90;;;;;;5053142;28;20056;-83
2023/03/21 10:10:06;;;;;;;27.95;15.60;;;9.70;99.90;;;;;;5070523;28;20052;-89
2023/03/21 10:12:54;;;;;;;24.10;15.35;;;9.70;99.90;;;;;;5071054;28;20056;-85
2023/03/21 10:15:40;;;;;;;22.45;15.57;;;9.70;99.90;;;;;;5072532;28;20048;-84
2023/03/21 10:18:29;;;;;;;25.90;15.48;;;9.60;99.90;;;;;;5069937;28;20122;-86
2023/03/21 10:21:27;;;;;;;24.98;13.48;;;9.70;99.90;;;;;;5070602;28;20439;-86
2023/03/21 10:24:17;;;;;;;25.17;14.65;;;9.60;99.90;;;;;;5069924;28;20508;-87
2023/03/21 10:27:05;;;;;;;27.40;16.52;;;9.70;99.90;;;;;;5070617;28;20036;-86
2023/03/21 10:29:52;;;;;;;23.05;15.63;;;9.70;99.90;;;;;;5071025;28;20056;-86
2023/03/21 10:32:38;;;;;;;29.77;17.63;;;9.70;99.90;;;;;;5070237;28;20044;-85
2023/03/21 10:35:24;;;;;;;26.48;17.42;;;9.80;99.90;;;;;;5068808;28;20056;-83
2023/03/21 10:38:21;;;;;;;24.33;15.65;;;9.80;99.90;;;;;;5070937;28;20052;-85
2023/03/21 10:41:10;;;;;;;31.17;16.65;;;9.90;99.90;;;;;;5069464;28;20076;-88
2023/03/21 10:44:15;;;;;;;26.52;16.17;;;10.00;99.90;;;;;;5052553;28;20052;-84
2023/03/21 10:47:10;;;;;;;25.08;15.35;;;10.10;99.90;;;;;;5069572;28;20044;-84
2023/03/21 10:50:03;;;;;;;24.20;13.07;;;10.20;99.90;;;;;;5068941;28;20416;-83
2023/03/21 10:52:52;;;;;;;22.85;12.23;;;10.40;99.90;;;;;;5068446;28;20059;-84
2023/03/21 10:55:40;;;;;;;23.55;12.18;;;10.40;99.90;;;;;;5053617;28;20114;-84
2023/03/21 10:58:32;;;;;;;20.95;11.07;;;10.50;99.90;;;;;;5070510;28;20048;-83
2023/03/21 11:01:47;;;;;;;21.73;11.48;;;10.50;99.90;;;;;;5068565;28;20099;-84
2023/03/21 11:04:35;;;;;;;19.70;10.82;;;10.60;99.90;;;;;;5069214;28;20131;-84
2023/03/21 11:07:24;;;;;;;20.35;11.40;;;10.70;99.90;;;;;;5071875;28;20055;-85
2023/03/21 11:10:31;;;;;;;22.05;11.13;;;10.70;99.90;;;;;;5069069;28;20135;-85
2023/03/21 11:13:23;;;;;;;22.35;12.25;;;10.80;99.90;;;;;;5069820;28;20040;-83
2023/03/21 11:16:21;;;;;;;17.20;11.00;;;10.90;99.90;;;;;;5069389;28;20048;-82
2023/03/21 11:19:31;;;;;;;22.75;11.18;;;10.80;99.90;;;;;;5069855;28;20500;-85
2023/03/21 11:22:20;;;;;;;18.48;10.10;;;10.90;99.90;;;;;;5068494;28;20044;-84
2023/03/21 11:25:11;;;;;;;16.70;9.68;;;10.90;99.90;;;;;;5069962;28;20049;-84
2023/03/21 11:27:58;;;;;;;16.42;9.38;;;11.00;99.90;;;;;;5068486;28;20045;-85
2023/03/21 11:30:59;;;;;;;18.70;8.43;;;11.10;99.90;;;;;;5068772;28;20059;-84
2023/03/21 11:33:58;;;;;;;16.85;10.25;;;11.20;99.90;;;;;;5050538;28;20064;-85
2023/03/21 11:36:50;;;;;;;17.10;9.77;;;11.30;99.90;;;;;;5050702;28;20068;-84
2023/03/21 11:39:39;;;;;;;15.93;8.18;;;11.40;99.90;;;;;;5081259;28;20044;-83
2023/03/21 11:42:33;;;;;;;16.85;7.93;;;11.40;99.90;;;;;;5069468;28;20127;-82
2023/03/21 11:45:34;;;;;;;15.75;8.48;;;11.40;99.90;;;;;;5069211;28;20052;-84
2023/03/21 11:48:20;;;;;;;16.85;8.75;;;11.50;99.90;;;;;;5068881;28;20056;-83
2023/03/21 11:51:36;;;;;;;14.55;8.30;;;11.50;99.90;;;;;;5068255;28;20048;-83
2023/03/21 11:54:28;;;;;;;18.80;8.93;;;11.50;99.90;;;;;;5062809;28;20048;-82
2023/03/21 11:57:22;;;;;;;17.15;7.28;;;11.50;99.90;;;;;;5068309;28;20409;-83
2023/03/21 12:00:21;;;;;;;14.48;7.47;;;11.40;99.90;;;;;;5069616;28;20095;-82
2023/03/21 12:03:45;;;;;;;14.52;7.70;;;11.30;99.90;;;;;;5068838;28;20060;-86
2023/03/21 12:06:39;;;;;;;18.63;7.53;;;11.30;99.90;;;;;;5082229;28;20106;-85
2023/03/21 12:09:40;;;;;;;16.30;8.80;;;11.20;99.90;;;;;;5089605;28;20059;-82
2023/03/21 12:12:51;;;;;;;17.92;8.68;;;11.20;99.90;;;;;;5071487;28;20051;-82
2023/03/21 12:15:49;;;;;;;16.30;8.73;;;11.20;99.90;;;;;;5089670;28;20087;-81
2023/03/21 12:18:55;;;;;;;16.77;8.43;;;11.20;99.90;;;;;;5075812;28;20063;-82
2023/03/21 12:21:59;;;;;;;17.30;7.65;;;11.10;99.90;;;;;;5089602;28;20047;-81
2023/03/21 12:24:55;;;;;;;18.92;9.50;;;11.10;99.90;;;;;;5088877;28;20048;-84
2023/03/21 12:28:18;;;;;;;22.38;8.75;;;11.10;99.90;;;;;;5088211;28;20501;-81
2023/03/21 12:31:19;;;;;;;20.58;9.32;;;11.00;99.90;;;;;;5088096;28;20048;-81
2023/03/21 12:34:30;;;;;;;17.23;8.90;;;11.00;99.90;;;;;;5090379;28;20506;-84
2023/03/21 12:37:51;;;;;;;20.77;10.63;;;11.00;99.90;;;;;;5092017;28;20855;-85
2023/03/21 12:40:53;;;;;;;18.48;8.75;;;10.90;99.90;;;;;;5094418;28;20055;-83
2023/03/21 12:43:39;;;;;;;18.80;9.57;;;10.90;99.90;;;;;;5092363;28;20056;-82
2023/03/21 12:46:35;;;;;;;17.73;9.13;;;10.90;99.90;;;;;;5076019;28;20052;-82
2023/03/21 12:49:55;;;;;;;17.20;10.15;;;11.00;99.90;;;;;;5092799;28;20044;-81
2023/03/21 12:52:46;;;;;;;24.23;11.65;;;11.00;99.90;;;;;;5072063;28;20094;-85
2023/03/21 12:55:34;;;;;;;21.20;11.15;;;11.10;99.90;;;;;;5092729;28;20044;-82
2023/03/21 12:58:24;;;;;;;18.02;10.50;;;11.30;99.90;;;;;;5091672;28;20070;-84
2023/03/21 13:01:14;;;;;;;21.40;10.02;;;11.40;99.90;;;;;;5091327;28;20663;-83
2023/03/21 13:04:31;;;;;;;14.85;9.88;;;11.50;99.90;;;;;;5084642;28;20057;-82
2023/03/21 13:07:19;;;;;;;19.77;10.35;;;11.50;99.90;;;;;;5089604;28;20492;-84
2023/03/21 13:10:19;;;;;;;18.85;10.77;;;11.50;99.90;;;;;;5092475;28;20050;-84
2023/03/21 13:13:18;;;;;;;18.55;9.73;;;11.50;99.90;;;;;;5073495;28;20633;-84
2023/03/21 13:16:12;;;;;;;23.30;10.00;;;11.50;99.90;;;;;;5091141;28;20055;-83
2023/03/21 13:19:25;;;;;;;17.70;9.50;;;11.50;99.90;;;;;;5093181;28;20044;-84
2023/03/21 13:22:26;;;;;;;16.30;9.93;;;11.50;99.90;;;;;;5075522;28;20814;-83
2023/03/21 13:25:18;;;;;;;20.42;10.38;;;11.50;99.90;;;;;;5090906;28;20090;-85
2023/03/21 13:28:05;;;;;;;19.63;11.15;;;11.50;99.90;;;;;;5090893;28;20044;-82
2023/03/21 13:30:51;;;;;;;19.08;11.00;;;11.50;99.90;;;;;;5091007;28;20048;-83
2023/03/21 13:33:43;;;;;;;17.30;10.68;;;11.50;99.90;;;;;;5074932;28;20055;-84
2023/03/21 13:36:30;;;;;;;20.08;11.98;;;11.50;99.90;;;;;;5073933;28;20454;-85
2023/03/21 13:39:28;;;;;;;24.00;12.63;;;11.60;99.90;;;;;;5091095;28;20496;-84
2023/03/21 13:42:22;;;;;;;19.60;11.95;;;11.70;99.90;;;;;;5090068;28;20515;-85
2023/03/21 13:45:10;;;;;;;30.35;12.40;;;11.70;99.90;;;;;;5091192;28;20121;-84
2023/03/21 13:47:59;;;;;;;23.25;12.98;;;11.70;99.90;;;;;;5090403;28;20151;-85
2023/03/21 13:51:02;;;;;;;22.33;12.35;;;11.70;99.90;;;;;;5071046;28;20101;-83
2023/03/21 13:54:07;;;;;;;20.27;12.25;;;11.90;99.90;;;;;;5094840;28;20052;-83
2023/03/21 13:56:57;;;;;;;25.75;12.60;;;12.30;99.90;;;;;;5072508;28;20134;-84
2023/03/21 13:59:47;;;;;;;23.40;12.73;;;12.60;99.90;;;;;;5073039;28;20080;-84
2023/03/21 14:02:34;;;;;;;24.27;11.85;;;12.60;99.90;;;;;;5089974;28;20048;-86
2023/03/21 14:05:23;;;;;;;24.65;12.10;;;12.60;99.90;;;;;;5090981;28;20147;-85
2023/03/21 14:08:16;;;;;;;18.75;11.60;;;12.50;99.90;;;;;;5073664;28;20043;-84
2023/03/21 14:11:10;;;;;;;21.23;11.77;;;12.40;99.90;;;;;;5090000;28;20556;-84
2023/03/21 14:13:59;;;;;;;20.55;11.35;;;12.30;99.90;;;;;;5089937;28;20510;-82
2023/03/21 14:16:45;;;;;;;22.90;12.32;;;12.30;99.90;;;;;;5090516;28;20056;-84
2023/03/21 14:19:32;;;;;;;16.90;10.85;;;12.30;99.90;;;;;;5093526;28;20059;-82
2023/03/21 14:22:18;;;;;;;23.10;12.52;;;12.30;99.90;;;;;;5091342;28;20044;-84
2023/03/21 14:25:12;;;;;;;19.80;11.50;;;12.30;99.90;;;;;;5092082;28;20405;-81
2023/03/21 14:28:02;;;;;;;23.13;11.48;;;12.20;99.90;;;;;;5090678;28;20131;-82
2023/03/21 14:30:54;;;;;;;19.45;11.18;;;12.30;99.90;;;;;;5090568;28;20626;-83
2023/03/21 14:33:46;;;;;;;21.63;11.52;;;12.50;99.90;;;;;;5091428;28;20514;-82
2023/03/21 14:36:37;;;;;;;21.52;11.60;;;12.60;99.90;;;;;;5072832;28;20051;-82